createdAt,value
2022-10-23T00:01:30.066Z,101370.66
2022-10-23T00:04:01.657Z,101370.50
2022-10-23T00:06:31.634Z,101362.81
2022-10-23T00:08:58.461Z,101365.44
2022-10-23T00:11:27.543Z,101357.19
2022-10-23T00:13:56.851Z,101363.16
2022-10-23T00:16:23.380Z,101359.25
2022-10-23T00:18:49.896Z,101354.44
2022-10-23T00:21:17.601Z,101361.09
2022-10-23T00:23:44.938Z,101351.63
2022-10-23T00:26:16.417Z,101357.19
2022-10-23T00:28:45.056Z,101344.56
2022-10-23T00:31:12.411Z,101342.59
2022-10-23T00:33:39.073Z,101357.13
2022-10-23T00:36:07.840Z,101354.09
2022-10-23T00:38:35.020Z,101354.97
2022-10-23T00:41:01.895Z,101359.63
2022-10-23T00:43:30.182Z,101353.69
2022-10-23T00:45:57.902Z,101356.78
2022-10-23T00:48:26.180Z,101360.50
2022-10-23T00:50:53.500Z,101358.09
2022-10-23T00:53:21.699Z,101355.78
2022-10-23T00:55:53.146Z,101362.81
2022-10-23T00:58:21.000Z,101360.34
2022-10-23T01:00:51.655Z,101350.88
2022-10-23T01:03:20.326Z,101349.56
2022-10-23T01:05:51.998Z,101350.66
2022-10-23T01:08:34.935Z,101350.69
2022-10-23T01:11:14.918Z,101346.69
2022-10-23T01:14:06.486Z,101338.59
2022-10-23T01:16:57.292Z,101343.38
2022-10-23T01:19:42.884Z,101334.59
2022-10-23T01:22:38.314Z,101350.97
2022-10-23T01:25:19.425Z,101359.44
2022-10-23T01:27:53.174Z,101351.06
2022-10-23T01:30:20.221Z,101341.50
2022-10-23T01:32:54.984Z,101341.25
2022-10-23T01:35:50.634Z,101330.91
2022-10-23T01:38:27.495Z,101322.19
2022-10-23T01:41:03.105Z,101318.59
2022-10-23T01:43:59.907Z,101323.34
2022-10-23T01:46:28.051Z,101295.88
2022-10-23T01:48:56.572Z,101311.75
2022-10-23T01:51:27.368Z,101310.97
2022-10-23T01:53:57.298Z,101307.75
2022-10-23T01:56:28.462Z,101297.88
2022-10-23T01:58:57.829Z,101303.44
2022-10-23T02:01:27.770Z,101303.78
2022-10-23T02:03:55.900Z,101302.16
2022-10-23T02:06:22.715Z,101300.59
2022-10-23T02:08:49.690Z,101304.66
2022-10-23T02:11:21.722Z,101302.66
2022-10-23T02:14:05.318Z,101303.13
2022-10-23T02:16:40.827Z,101298.63
2022-10-23T02:19:19.493Z,101300.31
2022-10-23T02:22:05.603Z,101298.28
2022-10-23T02:25:00.788Z,101283.63
2022-10-23T02:27:40.411Z,101284.38
2022-10-23T02:30:09.999Z,101283.22
2022-10-23T02:32:41.337Z,101254.59
2022-10-23T02:35:08.774Z,101258.66
2022-10-23T02:37:35.311Z,101252.31
2022-10-23T02:40:02.010Z,101241.88
2022-10-23T02:42:42.774Z,101241.13
2022-10-23T02:45:14.703Z,101226.44
2022-10-23T02:48:04.300Z,101234.84
2022-10-23T02:50:37.645Z,101230.91
2022-10-23T02:53:21.036Z,101212.63
2022-10-23T02:56:03.223Z,101216.66
2022-10-23T02:58:41.521Z,101213.22
2022-10-23T03:01:11.754Z,101209.59
2022-10-23T03:03:42.568Z,101198.84
2022-10-23T03:06:09.129Z,101198.84
2022-10-23T03:09:03.864Z,101198.41
2022-10-23T03:11:30.683Z,101192.41
2022-10-23T03:13:57.211Z,101200.06
2022-10-23T03:16:24.509Z,101194.06
2022-10-23T03:18:51.045Z,101197.97
2022-10-23T03:21:17.557Z,101190.84
2022-10-23T03:23:44.020Z,101187.75
2022-10-23T03:26:10.505Z,101189.78
2022-10-23T03:28:37.001Z,101188.22
2022-10-23T03:31:03.829Z,101176.34
2022-10-23T03:33:31.150Z,101181.50
2022-10-23T03:35:57.879Z,101171.19
2022-10-23T03:38:24.354Z,101161.25
2022-10-23T03:40:50.991Z,101164.00
2022-10-23T03:43:17.473Z,101163.59
2022-10-23T03:45:44.140Z,101147.31
2022-10-23T03:48:10.838Z,101153.25
2022-10-23T03:50:37.375Z,101143.38
2022-10-23T03:53:03.902Z,101131.00
2022-10-23T03:55:31.415Z,101132.66
2022-10-23T03:57:57.949Z,101137.78
2022-10-23T04:00:24.425Z,101132.22
2022-10-23T04:02:50.949Z,101132.59
2022-10-23T04:05:17.613Z,101124.69
2022-10-23T04:07:44.075Z,101126.34
2022-10-23T04:10:10.601Z,101119.09
2022-10-23T04:12:37.143Z,101124.69
2022-10-23T04:15:04.336Z,101113.59
2022-10-23T04:17:30.878Z,101117.16
2022-10-23T04:19:57.353Z,101121.91
2022-10-23T04:22:26.134Z,101112.09
2022-10-23T04:24:54.863Z,101103.66
2022-10-23T04:27:21.336Z,101106.84
2022-10-23T04:29:47.863Z,101104.91
2022-10-23T04:32:14.365Z,101101.66
2022-10-23T04:34:40.880Z,101090.53
2022-10-23T04:37:07.372Z,101111.56
2022-10-23T04:39:33.865Z,101099.28
2022-10-23T04:42:00.311Z,101100.41
2022-10-23T04:44:26.756Z,101109.63
2022-10-23T04:46:53.260Z,101107.19
2022-10-23T04:49:19.758Z,101098.50
2022-10-23T04:51:46.221Z,101103.22
2022-10-23T04:54:12.703Z,101101.28
2022-10-23T04:56:39.263Z,101092.47
2022-10-23T05:01:37.285Z,101090.47
2022-10-23T05:04:04.188Z,101091.31
2022-10-23T05:06:30.670Z,101093.69
2022-10-23T05:08:57.276Z,101096.81
2022-10-23T05:11:24.692Z,101096.84
2022-10-23T05:13:51.187Z,101084.94
2022-10-23T05:16:33.133Z,101088.94
2022-10-23T05:19:00.263Z,101090.53
2022-10-23T05:21:30.080Z,101096.91
2022-10-23T05:23:57.571Z,101096.88
2022-10-23T05:26:24.172Z,101091.38
2022-10-23T05:28:50.709Z,101094.88
2022-10-23T05:31:19.008Z,101083.38
2022-10-23T05:33:45.596Z,101078.22
2022-10-23T05:36:14.170Z,101084.16
2022-10-23T05:38:41.179Z,101081.03
2022-10-23T05:41:07.715Z,101080.97
2022-10-23T05:43:34.192Z,101084.16
2022-10-23T05:46:05.479Z,101072.25
2022-10-23T05:48:35.007Z,101075.94
2022-10-23T05:51:10.378Z,101077.06
2022-10-23T05:53:40.133Z,101078.72
2022-10-23T05:56:09.743Z,101063.94
2022-10-23T05:58:36.301Z,101065.22
2022-10-23T06:01:11.485Z,101054.03
2022-10-23T06:03:38.870Z,101056.38
2022-10-23T06:06:08.846Z,101061.16
2022-10-23T06:08:35.888Z,101064.34
2022-10-23T06:11:10.723Z,101056.38
2022-10-23T06:13:37.537Z,101042.09
2022-10-23T06:16:16.306Z,101048.44
2022-10-23T06:18:43.439Z,101043.69
2022-10-23T06:21:10.510Z,101042.16
2022-10-23T06:23:38.579Z,101036.16
2022-10-23T06:26:06.829Z,101031.72
2022-10-23T06:28:33.331Z,101025.38
2022-10-23T06:30:59.859Z,101016.66
2022-10-23T06:33:26.313Z,101022.22
2022-10-23T06:35:56.172Z,101028.94
2022-10-23T06:38:22.676Z,101027.00
2022-10-23T06:40:53.745Z,101019.09
2022-10-23T06:43:20.341Z,101021.50
2022-10-23T06:45:46.864Z,101007.22
2022-10-23T06:48:13.437Z,101008.47
2022-10-23T06:50:40.411Z,101015.22
2022-10-23T06:53:07.145Z,100983.00
2022-10-23T06:55:34.747Z,101000.91
2022-10-23T06:58:01.361Z,100996.19
2022-10-23T07:00:27.969Z,100989.78
2022-10-23T07:02:54.844Z,100994.63
2022-10-23T07:05:21.324Z,100970.38
2022-10-23T07:07:47.851Z,100981.09
2022-10-23T07:10:15.352Z,100986.31
2022-10-23T07:12:42.415Z,100976.34
2022-10-23T07:15:09.657Z,100979.91
2022-10-23T07:17:36.136Z,100975.97
2022-10-23T07:20:02.651Z,100971.19
2022-10-23T07:22:29.159Z,100970.06
2022-10-23T07:24:55.683Z,100968.44
2022-10-23T07:27:22.245Z,100965.31
2022-10-23T07:29:52.425Z,100953.41
2022-10-23T07:32:19.697Z,100953.00
2022-10-23T07:34:46.204Z,100949.44
2022-10-23T07:37:12.792Z,100955.03
2022-10-23T07:39:39.334Z,100961.38
2022-10-23T07:42:05.878Z,100950.25
2022-10-23T07:44:32.417Z,100956.19
2022-10-23T07:46:58.870Z,100952.69
2022-10-23T07:49:25.501Z,100954.25
2022-10-23T07:51:53.882Z,100943.94
2022-10-23T07:54:20.471Z,100945.53
2022-10-23T07:56:47.069Z,100940.78
2022-10-23T07:59:13.812Z,100928.47
2022-10-23T08:01:42.531Z,100929.63
2022-10-23T08:04:10.795Z,100926.84
2022-10-23T08:06:38.343Z,100923.66
2022-10-23T08:09:06.616Z,100923.25
2022-10-23T08:11:35.325Z,100914.53
2022-10-23T08:14:04.677Z,100914.91
2022-10-23T08:16:33.295Z,100911.31
2022-10-23T08:19:00.685Z,100897.41
2022-10-23T08:21:27.551Z,100912.94
2022-10-23T08:23:55.525Z,100907.75
2022-10-23T08:26:23.253Z,100901.81
2022-10-23T08:28:49.903Z,100899.84
2022-10-23T08:31:18.706Z,100889.06
2022-10-23T08:33:46.035Z,100899.78
2022-10-23T08:36:24.516Z,100881.09
2022-10-23T08:38:53.771Z,100893.00
2022-10-23T08:41:37.219Z,100888.63
2022-10-23T08:44:41.112Z,100880.25
2022-10-23T08:47:17.044Z,100869.50
2022-10-23T08:49:51.247Z,100880.97
2022-10-23T08:52:25.869Z,100877.38
2022-10-23T08:54:52.325Z,100872.66
2022-10-23T08:57:22.906Z,100869.00
2022-10-23T09:00:00.128Z,100865.88
2022-10-23T09:02:31.779Z,100851.41
2022-10-23T09:04:59.215Z,100841.88
2022-10-23T09:07:34.051Z,100830.34
2022-10-23T09:10:32.743Z,100817.13
2022-10-23T09:13:22.535Z,100830.59
2022-10-23T09:16:13.285Z,100830.97
2022-10-23T09:18:41.999Z,100820.28
2022-10-23T09:21:10.307Z,100822.19
2022-10-23T09:23:37.491Z,100821.06
2022-10-23T09:26:15.717Z,100813.09
2022-10-23T09:28:57.128Z,100817.38
2022-10-23T09:31:23.710Z,100805.47
2022-10-23T09:33:55.690Z,100808.59
2022-10-23T09:36:24.546Z,100808.25
2022-10-23T09:38:53.363Z,100802.38
2022-10-23T09:41:23.629Z,100799.47
2022-10-23T09:44:08.475Z,100785.03
2022-10-23T09:46:43.786Z,100772.22
2022-10-23T09:49:24.243Z,100766.94
2022-10-23T09:52:04.308Z,100772.13
2022-10-23T09:54:34.523Z,100769.25
2022-10-23T09:57:23.687Z,100736.16
2022-10-23T09:59:55.440Z,100738.38
2022-10-23T10:02:29.495Z,100727.94
2022-10-23T10:04:56.068Z,100719.44
2022-10-23T10:07:33.347Z,100714.16
2022-10-23T10:10:02.517Z,100705.94
2022-10-23T10:12:31.732Z,100700.34
2022-10-23T10:15:12.620Z,100707.28
2022-10-23T10:17:56.167Z,100711.28
2022-10-23T10:20:48.453Z,100703.84
2022-10-23T10:23:30.835Z,100705.06
2022-10-23T10:26:15.802Z,100704.94
2022-10-23T10:28:59.160Z,100718.47
2022-10-23T10:31:44.021Z,100717.81
2022-10-23T10:34:22.737Z,100710.34
2022-10-23T10:36:56.304Z,100701.69
2022-10-23T10:39:49.733Z,100695.34
2022-10-23T10:42:40.617Z,100693.50
2022-10-23T10:45:12.882Z,100682.34
2022-10-23T10:48:12.210Z,100687.88
2022-10-23T10:50:38.665Z,100669.09
2022-10-23T10:53:31.320Z,100662.97
2022-10-23T10:56:01.988Z,100658.53
2022-10-23T10:58:39.091Z,100652.94
2022-10-23T11:01:27.446Z,100639.78
2022-10-23T11:04:17.914Z,100626.47
2022-10-23T11:06:48.121Z,100624.75
2022-10-23T11:09:21.039Z,100620.09
2022-10-23T11:11:48.769Z,100619.00
2022-10-23T11:14:21.101Z,100616.31
2022-10-23T11:16:54.790Z,100621.97
2022-10-23T11:19:49.264Z,100619.09
2022-10-23T11:22:42.546Z,100625.13
2022-10-23T11:25:28.722Z,100620.59
2022-10-23T11:28:25.049Z,100606.88
2022-10-23T11:31:16.206Z,100603.06
2022-10-23T11:34:10.655Z,100594.75
2022-10-23T11:36:47.083Z,100581.91
2022-10-23T11:39:21.344Z,100577.41
2022-10-23T11:41:53.155Z,100578.19
2022-10-23T11:44:26.910Z,100580.09
2022-10-23T11:47:03.041Z,100580.13
2022-10-23T11:49:29.591Z,100565.75
2022-10-23T11:52:00.943Z,100543.59
2022-10-23T11:54:27.624Z,100554.38
2022-10-23T11:57:10.720Z,100556.72
2022-10-23T11:59:49.495Z,100557.19
2022-10-23T12:02:23.012Z,100550.25
2022-10-23T12:04:52.276Z,100539.69
2022-10-23T12:07:31.809Z,100540.22
2022-10-23T12:10:02.568Z,100545.63
2022-10-23T12:12:43.236Z,100541.00
2022-10-23T12:15:15.635Z,100529.63
2022-10-23T12:17:43.910Z,100546.78
2022-10-23T12:20:10.949Z,100532.28
2022-10-23T12:23:02.183Z,100531.66
2022-10-23T12:25:38.253Z,100526.44
2022-10-23T12:28:32.198Z,100523.78
2022-10-23T12:31:18.893Z,100520.53
2022-10-23T12:34:14.044Z,100510.22
2022-10-23T12:37:07.096Z,100499.72
2022-10-23T12:39:40.184Z,100483.91
2022-10-23T12:42:17.381Z,100494.16
2022-10-23T12:44:44.008Z,100485.00
2022-10-23T12:47:18.855Z,100464.00
2022-10-23T12:49:50.034Z,100472.38
2022-10-23T12:52:19.669Z,100461.13
2022-10-23T12:54:46.577Z,100454.56
2022-10-23T12:57:25.995Z,100459.50
2022-10-23T13:00:00.807Z,100459.22
2022-10-23T13:02:30.241Z,100442.56
2022-10-23T13:05:00.232Z,100441.53
2022-10-23T13:07:29.951Z,100436.66
2022-10-23T13:09:58.499Z,100418.09
2022-10-23T13:12:31.654Z,100424.50
2022-10-23T13:15:07.046Z,100409.81
2022-10-23T13:17:45.484Z,100399.28
2022-10-23T13:20:18.199Z,100405.69
2022-10-23T13:22:47.003Z,100406.81
2022-10-23T13:25:20.957Z,100403.22
2022-10-23T13:27:47.713Z,100412.50
2022-10-23T13:30:33.366Z,100430.22
2022-10-23T13:32:59.928Z,100404.78
2022-10-23T13:35:26.734Z,100420.25
2022-10-23T13:37:53.277Z,100414.06
2022-10-23T13:40:26.183Z,100399.84
2022-10-23T13:42:55.047Z,100396.63
2022-10-23T13:45:26.634Z,100403.97
2022-10-23T13:47:53.548Z,100416.03
2022-10-23T13:50:20.214Z,100400.22
2022-10-23T13:52:46.752Z,100412.88
2022-10-23T13:55:20.177Z,100388.31
2022-10-23T13:57:46.860Z,100393.84
2022-10-23T14:00:15.111Z,100393.50
2022-10-23T14:02:42.370Z,100387.91
2022-10-23T14:05:09.829Z,100394.28
2022-10-23T14:07:36.357Z,100388.19
2022-10-23T14:10:03.451Z,100393.38
2022-10-23T14:12:29.928Z,100396.88
2022-10-23T14:14:56.452Z,100395.50
2022-10-23T14:17:23.118Z,100397.53
2022-10-23T14:19:50.218Z,100382.50
2022-10-23T14:22:18.008Z,100383.19
2022-10-23T14:24:44.508Z,100365.81
2022-10-23T14:27:12.201Z,100380.84
2022-10-23T14:29:40.607Z,100363.91
2022-10-23T14:32:07.157Z,100375.00
2022-10-23T14:34:33.873Z,100373.09
2022-10-23T14:37:15.421Z,100379.47
2022-10-23T14:39:45.118Z,100377.44
2022-10-23T14:42:14.442Z,100379.03
2022-10-23T14:44:41.008Z,100370.28
2022-10-23T14:47:07.569Z,100363.91
2022-10-23T14:49:35.620Z,100362.88
2022-10-23T14:52:02.296Z,100370.28
2022-10-23T14:54:34.445Z,100356.84
2022-10-23T14:57:01.009Z,100353.47
2022-10-23T14:59:27.476Z,100346.66
2022-10-23T15:04:25.686Z,100329.25
2022-10-23T15:06:52.576Z,100323.13
2022-10-23T15:09:20.137Z,100323.78
2022-10-23T15:11:47.343Z,100325.78
2022-10-23T15:14:13.907Z,100320.53
2022-10-23T15:16:43.213Z,100313.94
2022-10-23T15:19:18.176Z,100315.72
2022-10-23T15:21:48.852Z,100310.22
2022-10-23T15:24:17.089Z,100310.22
2022-10-23T15:26:44.156Z,100304.50
2022-10-23T15:29:11.502Z,100303.63
2022-10-23T15:31:38.022Z,100322.19
2022-10-23T15:34:10.166Z,100308.53
2022-10-23T15:36:37.038Z,100302.91
2022-10-23T15:39:08.039Z,100306.06
2022-10-23T15:41:36.957Z,100300.91
2022-10-23T15:44:04.840Z,100293.31
2022-10-23T15:46:31.568Z,100306.19
2022-10-23T15:48:58.491Z,100299.81
2022-10-23T15:51:25.207Z,100297.09
2022-10-23T15:53:51.840Z,100296.41
2022-10-23T15:56:18.384Z,100296.41
2022-10-23T15:58:45.013Z,100295.22
2022-10-23T16:01:11.604Z,100285.44
2022-10-23T16:03:38.921Z,100286.22
2022-10-23T16:06:07.199Z,100300.00
2022-10-23T16:08:34.063Z,100278.97
2022-10-23T16:11:00.713Z,100286.34
2022-10-23T16:13:27.841Z,100283.00
2022-10-23T16:15:54.968Z,100286.47
2022-10-23T16:18:23.242Z,100277.81
2022-10-23T16:20:55.168Z,100270.56
2022-10-23T16:23:22.410Z,100271.78
2022-10-23T16:25:49.101Z,100262.94
2022-10-23T16:28:15.683Z,100254.97
2022-10-23T16:30:43.536Z,100252.63
2022-10-23T16:33:11.037Z,100254.41
2022-10-23T16:35:38.456Z,100241.88
2022-10-23T16:38:05.267Z,100257.09
2022-10-23T16:40:31.852Z,100272.22
2022-10-23T16:42:58.676Z,100253.75
2022-10-23T16:45:25.286Z,100253.19
2022-10-23T16:47:51.868Z,100262.50
2022-10-23T16:50:18.383Z,100259.56
2022-10-23T16:52:45.260Z,100257.44
2022-10-23T16:55:12.232Z,100239.75
2022-10-23T16:57:38.786Z,100232.91
2022-10-23T17:00:06.877Z,100236.16
2022-10-23T17:02:33.713Z,100232.25
2022-10-23T17:05:00.547Z,100249.81
2022-10-23T17:07:27.098Z,100252.97
2022-10-23T17:09:53.616Z,100257.91
2022-10-23T17:12:20.140Z,100250.59
2022-10-23T17:14:46.661Z,100254.63
2022-10-23T17:17:13.639Z,100251.59
2022-10-23T17:19:45.857Z,100255.41
2022-10-23T17:22:13.596Z,100238.72
2022-10-23T17:24:41.255Z,100226.75
2022-10-23T17:27:08.167Z,100236.03
2022-10-23T17:29:34.821Z,100240.19
2022-10-23T17:32:01.637Z,100235.38
2022-10-23T17:34:28.350Z,100229.09
2022-10-23T17:36:56.184Z,100216.00
2022-10-23T17:39:26.197Z,100195.84
2022-10-23T17:41:53.543Z,100176.94
2022-10-23T17:44:20.415Z,100218.22
2022-10-23T17:46:52.186Z,100232.00
2022-10-23T17:49:18.702Z,100221.59
2022-10-23T17:51:45.258Z,100205.69
2022-10-23T17:54:12.865Z,100219.81
2022-10-23T17:56:40.750Z,100190.59
2022-10-23T17:59:14.665Z,100192.25
2022-10-23T18:01:43.892Z,100196.72
2022-10-23T18:04:10.607Z,100171.53
2022-10-23T18:06:42.111Z,100197.31
2022-10-23T18:09:08.671Z,100216.66
2022-10-23T18:11:37.811Z,100207.50
2022-10-23T18:14:06.293Z,100223.16
2022-10-23T18:16:37.311Z,100240.84
2022-10-23T18:19:04.616Z,100214.66
2022-10-23T18:21:31.830Z,100194.63
2022-10-23T18:24:00.257Z,100170.31
2022-10-23T18:26:29.042Z,100141.44
2022-10-23T18:28:58.258Z,100095.16
2022-10-23T18:31:27.226Z,100130.13
2022-10-23T18:33:59.728Z,100107.41
2022-10-23T18:36:29.452Z,100135.81
2022-10-23T18:41:32.731Z,100220.38
2022-10-23T18:43:59.209Z,100210.19
2022-10-23T18:46:25.794Z,100206.41
2022-10-23T18:48:52.447Z,100201.25
2022-10-23T18:51:20.995Z,100206.25
2022-10-23T18:53:48.007Z,100212.78
2022-10-23T18:56:22.537Z,100240.44
2022-10-23T18:58:59.454Z,100242.44
2022-10-23T19:01:27.709Z,100231.22
2022-10-23T19:06:23.722Z,100250.84
2022-10-23T19:08:51.014Z,100261.94
2022-10-23T19:11:21.056Z,100260.56
2022-10-23T19:13:47.898Z,100265.16
2022-10-23T19:16:58.431Z,100275.38
2022-10-23T19:19:30.614Z,100287.59
2022-10-23T19:21:57.492Z,100274.50
2022-10-23T19:24:29.554Z,100267.84
2022-10-23T19:26:57.425Z,100274.47
2022-10-23T19:29:26.677Z,100279.00
2022-10-23T19:31:54.110Z,100290.41
2022-10-23T19:34:22.862Z,100285.25
2022-10-23T19:36:50.415Z,100307.69
2022-10-23T19:39:17.826Z,100312.88
2022-10-23T19:41:45.462Z,100295.09
2022-10-23T19:44:14.153Z,100307.97
2022-10-23T19:46:40.866Z,100302.38
2022-10-23T19:49:08.801Z,100316.72
2022-10-23T19:51:35.723Z,100328.88
2022-10-23T19:54:02.281Z,100330.44
2022-10-23T19:56:28.836Z,100329.84
2022-10-23T19:58:55.406Z,100331.50
2022-10-23T20:01:24.923Z,100339.53
2022-10-23T20:03:51.711Z,100349.53
2022-10-23T20:06:24.606Z,100354.69
2022-10-23T20:08:51.602Z,100358.34
2022-10-23T20:11:25.950Z,100354.97
2022-10-23T20:13:52.687Z,100357.63
2022-10-23T20:16:21.628Z,100361.72
2022-10-23T20:18:48.702Z,100364.25
2022-10-23T20:21:16.348Z,100367.88
2022-10-23T20:23:43.385Z,100369.47
2022-10-23T20:26:13.161Z,100381.72
2022-10-23T20:28:39.712Z,100380.50
2022-10-23T20:31:08.499Z,100371.38
2022-10-23T20:33:36.915Z,100370.13
2022-10-23T20:36:05.602Z,100374.94
2022-10-23T20:38:32.112Z,100374.88
2022-10-23T20:41:03.936Z,100376.03
2022-10-23T20:43:35.402Z,100364.50
2022-10-23T20:46:06.544Z,100365.00
2022-10-23T20:48:41.281Z,100371.44
2022-10-23T20:51:14.126Z,100378.31
2022-10-23T20:53:41.567Z,100376.28
2022-10-23T20:56:10.509Z,100369.84
2022-10-23T20:58:37.102Z,100371.19
2022-10-23T21:01:10.045Z,100384.25
2022-10-23T21:03:37.546Z,100379.34
2022-10-23T21:06:06.183Z,100373.50
2022-10-23T21:08:33.022Z,100371.56
2022-10-23T21:11:00.287Z,100378.69
2022-10-23T21:13:27.969Z,100376.28
2022-10-23T21:15:55.043Z,100381.00
2022-10-23T21:18:33.634Z,100377.00
2022-10-23T21:21:11.443Z,100374.59
2022-10-23T21:23:38.662Z,100368.03
2022-10-23T21:26:07.476Z,100358.88
2022-10-23T21:28:34.332Z,100341.72
2022-10-23T21:31:06.282Z,100368.81
2022-10-23T21:33:33.669Z,100363.31
2022-10-23T21:36:12.828Z,100357.34
2022-10-23T21:38:40.334Z,100361.72
2022-10-23T21:41:09.303Z,100375.75
2022-10-23T21:43:36.137Z,100362.19
2022-10-23T21:46:04.625Z,100361.47
2022-10-23T21:48:31.829Z,100365.03
2022-10-23T21:50:59.931Z,100362.38
2022-10-23T21:53:27.419Z,100365.53
2022-10-23T21:55:55.252Z,100369.41
2022-10-23T21:58:22.118Z,100356.13
2022-10-23T22:00:48.726Z,100367.75
2022-10-23T22:03:15.241Z,100369.47
2022-10-23T22:05:41.756Z,100353.09
2022-10-23T22:08:08.313Z,100366.75
2022-10-23T22:10:35.221Z,100366.44
2022-10-23T22:13:01.737Z,100369.00
2022-10-23T22:15:28.372Z,100374.19
2022-10-23T22:17:55.175Z,100366.34
2022-10-23T22:20:21.711Z,100354.50
2022-10-23T22:22:48.214Z,100362.81
2022-10-23T22:25:14.709Z,100358.34
2022-10-23T22:27:41.421Z,100376.28
2022-10-23T22:30:08.191Z,100366.81
2022-10-23T22:32:35.306Z,100353.06
2022-10-23T22:35:01.772Z,100353.47
2022-10-23T22:37:28.294Z,100344.13
2022-10-23T22:39:54.752Z,100342.78
2022-10-23T22:42:21.385Z,100328.34
2022-10-23T22:44:47.853Z,100326.44
2022-10-23T22:47:14.463Z,100315.00
2022-10-23T22:49:40.984Z,100301.22
2022-10-23T22:52:07.499Z,100298.84
2022-10-23T22:54:34.114Z,100293.50
2022-10-23T22:57:00.678Z,100286.59
2022-10-23T22:59:27.159Z,100274.84
2022-10-23T23:01:53.647Z,100276.16
2022-10-23T23:07:08.901Z,100283.13
2022-10-23T23:09:37.779Z,100290.22
2022-10-23T23:12:04.883Z,100283.47
2022-10-23T23:14:31.402Z,100291.41
2022-10-23T23:16:58.005Z,100281.31
2022-10-23T23:19:26.559Z,100287.44
2022-10-23T23:21:59.925Z,100283.97
2022-10-23T23:24:28.931Z,100288.84
2022-10-23T23:26:55.404Z,100286.41
2022-10-23T23:29:22.084Z,100284.25
2022-10-23T23:31:48.675Z,100284.19
2022-10-23T23:34:15.195Z,100286.69
2022-10-23T23:36:41.696Z,100289.69
2022-10-23T23:39:08.161Z,100277.84
2022-10-23T23:41:34.842Z,100280.06
2022-10-23T23:44:01.340Z,100278.41
2022-10-23T23:46:27.839Z,100276.03
2022-10-23T23:48:54.344Z,100270.53
2022-10-23T23:51:23.954Z,100262.44
2022-10-23T23:53:51.010Z,100259.53
2022-10-23T23:56:18.482Z,100249.81
2022-10-23T23:58:45.130Z,100252.38
